createdAt,value
2023-05-22T00:01:46.925Z,68977.97
2023-05-22T00:04:21.130Z,68949.09
2023-05-22T00:06:49.141Z,68921.38
2023-05-22T00:09:16.597Z,68906.00
2023-05-22T00:11:43.965Z,68895.19
2023-05-22T00:14:13.393Z,68901.09
2023-05-22T00:16:41.371Z,68906.97
2023-05-22T00:19:13.636Z,68920.44
2023-05-22T00:21:41.084Z,68926.13
2023-05-22T00:24:08.547Z,68915.50
2023-05-22T00:26:35.872Z,68912.28
2023-05-22T00:29:03.683Z,68911.13
2023-05-22T00:31:30.914Z,68921.94
2023-05-22T00:33:59.202Z,68939.25
2023-05-22T00:40:52.570Z,68959.16
2023-05-22T00:43:20.131Z,68958.03
2023-05-22T00:45:47.720Z,68951.38
2023-05-22T00:48:15.650Z,68945.50
2023-05-22T00:50:44.422Z,68926.13
2023-05-22T00:53:12.446Z,68914.75
2023-05-22T00:55:40.237Z,68896.91
2023-05-22T00:58:09.721Z,68882.69
2023-05-22T01:00:39.471Z,68901.84
2023-05-22T01:03:10.116Z,68904.13
2023-05-22T01:05:38.180Z,68905.66
2023-05-22T01:08:07.441Z,68915.50
2023-05-22T01:10:36.671Z,68914.34
2023-05-22T01:13:42.947Z,68917.00
2023-05-22T01:16:19.296Z,68913.41
2023-05-22T01:19:05.269Z,68901.28
2023-05-22T01:22:01.676Z,68881.38
2023-05-22T01:24:53.116Z,68851.38
2023-05-22T01:27:35.424Z,68828.25
2023-05-22T01:30:56.070Z,68823.34
2023-05-22T01:33:27.516Z,68829.03
2023-05-22T01:36:00.027Z,68837.56
2023-05-22T01:38:27.819Z,68838.13
2023-05-22T01:40:56.248Z,68854.63
2023-05-22T01:43:23.588Z,68856.50
2023-05-22T01:45:51.555Z,68852.53
2023-05-22T01:48:18.819Z,68859.34
2023-05-22T01:50:51.232Z,68867.13
2023-05-22T01:53:28.399Z,68860.88
2023-05-22T01:56:07.808Z,68862.59
2023-05-22T01:58:45.057Z,68862.59
2023-05-22T02:01:15.037Z,68867.53
2023-05-22T02:03:42.849Z,68855.38
2023-05-22T02:06:13.181Z,68856.91
2023-05-22T02:08:43.087Z,68853.31
2023-05-22T02:11:15.011Z,68850.66
2023-05-22T02:13:43.060Z,68842.09
2023-05-22T02:16:12.342Z,68850.66
2023-05-22T02:18:42.048Z,68847.22
2023-05-22T02:21:09.516Z,68838.88
2023-05-22T02:23:37.977Z,68836.81
2023-05-22T02:26:05.832Z,68829.03
2023-05-22T02:28:33.368Z,68826.94
2023-05-22T02:31:01.129Z,68840.38
2023-05-22T02:33:29.937Z,68845.50
2023-05-22T02:35:57.497Z,68835.44
2023-05-22T02:38:24.788Z,68835.09
2023-05-22T02:40:52.497Z,68818.00
2023-05-22T02:43:21.236Z,68805.31
2023-05-22T02:45:48.561Z,68805.72
2023-05-22T02:48:16.888Z,68812.91
2023-05-22T02:50:44.349Z,68800.00
2023-05-22T02:53:12.072Z,68797.72
2023-05-22T02:55:40.310Z,68784.25
2023-05-22T02:58:11.313Z,68772.88
2023-05-22T03:00:38.938Z,68769.09
2023-05-22T03:03:07.310Z,68756.22
2023-05-22T03:05:35.368Z,68748.44
2023-05-22T03:08:02.698Z,68746.75
2023-05-22T03:10:31.268Z,68745.75
2023-05-22T03:12:58.518Z,68740.31
2023-05-22T03:15:26.171Z,68731.03
2023-05-22T03:17:58.093Z,68718.13
2023-05-22T03:20:25.550Z,68717.94
2023-05-22T03:22:52.807Z,68717.00
2023-05-22T03:25:21.563Z,68701.81
2023-05-22T03:27:48.852Z,68711.69
2023-05-22T03:30:16.327Z,68720.41
2023-05-22T03:32:53.257Z,68711.69
2023-05-22T03:35:20.986Z,68710.75
2023-05-22T03:37:48.402Z,68719.25
2023-05-22T03:40:18.170Z,68725.50
2023-05-22T03:42:45.419Z,68725.34
2023-05-22T03:45:13.298Z,68711.69
2023-05-22T03:47:40.800Z,68727.06
2023-05-22T03:50:08.846Z,68731.03
2023-05-22T03:52:36.109Z,68739.19
2023-05-22T03:55:05.516Z,68737.84
2023-05-22T03:57:33.128Z,68745.78
2023-05-22T04:00:09.441Z,68747.69
2023-05-22T04:02:45.268Z,68768.34
2023-05-22T04:05:13.340Z,68753.00
2023-05-22T04:07:40.718Z,68769.84
2023-05-22T04:10:08.487Z,68770.81
2023-05-22T04:12:37.017Z,68763.78
2023-05-22T04:15:04.596Z,68764.38
2023-05-22T04:17:33.971Z,68771.97
2023-05-22T04:20:01.529Z,68775.53
2023-05-22T04:22:31.004Z,68788.25
2023-05-22T04:24:58.279Z,68788.06
2023-05-22T04:27:26.525Z,68801.72
2023-05-22T04:29:53.799Z,68818.78
2023-05-22T04:32:25.238Z,68844.38
2023-05-22T04:34:52.553Z,68877.94
2023-05-22T04:37:20.533Z,68927.06
2023-05-22T04:39:52.955Z,69029.41
2023-05-22T04:42:20.566Z,69097.78
2023-05-22T04:44:48.382Z,69142.94
2023-05-22T04:47:15.588Z,69165.97
2023-05-22T04:49:43.770Z,69179.31
2023-05-22T04:52:12.080Z,69224.16
2023-05-22T04:54:39.560Z,69273.56
2023-05-22T04:57:06.807Z,69307.22
2023-05-22T04:59:39.451Z,69316.94
2023-05-22T05:02:07.234Z,69320.94
2023-05-22T05:04:36.589Z,69325.47
2023-05-22T05:07:05.108Z,69315.78
2023-05-22T05:09:32.793Z,69258.88
2023-05-22T05:12:02.222Z,69243.53
2023-05-22T05:14:29.914Z,69228.31
2023-05-22T05:16:58.696Z,69143.69
2023-05-22T05:19:26.384Z,69127.00
2023-05-22T05:21:53.689Z,69123.59
2023-05-22T05:24:22.117Z,69108.59
2023-05-22T05:26:51.170Z,69064.88
2023-05-22T05:29:20.140Z,69076.69
2023-05-22T05:31:54.111Z,69075.88
2023-05-22T05:34:31.883Z,69082.78
2023-05-22T05:37:05.303Z,69116.00
2023-05-22T05:39:33.468Z,69182.13
2023-05-22T05:42:03.307Z,69241.44
2023-05-22T05:44:30.663Z,69287.84
2023-05-22T05:46:58.170Z,69330.22
2023-05-22T05:49:27.102Z,69385.84
2023-05-22T05:51:55.310Z,69435.50
2023-05-22T05:54:23.256Z,69492.22
2023-05-22T05:56:53.405Z,69441.38
2023-05-22T05:59:20.749Z,69436.81
2023-05-22T06:02:20.231Z,69493.38
2023-05-22T06:04:48.494Z,69513.94
2023-05-22T06:07:18.296Z,69498.50
2023-05-22T06:09:47.409Z,69522.09
2023-05-22T06:12:33.376Z,69538.91
2023-05-22T06:15:00.755Z,69611.34
2023-05-22T06:17:28.705Z,69638.94
2023-05-22T06:19:56.580Z,69665.44
2023-05-22T06:22:25.796Z,69658.41
2023-05-22T06:24:56.435Z,69656.28
2023-05-22T06:27:29.857Z,69613.94
2023-05-22T06:29:57.172Z,69608.81
2023-05-22T06:32:28.588Z,69654.56
2023-05-22T06:34:55.867Z,69695.16
2023-05-22T06:37:23.635Z,69707.75
2023-05-22T06:39:51.961Z,69738.06
2023-05-22T06:42:38.879Z,69811.47
2023-05-22T06:45:24.745Z,69834.22
2023-05-22T06:48:12.311Z,69803.31
2023-05-22T06:50:50.895Z,69769.25
2023-05-22T06:53:18.371Z,69779.84
2023-05-22T06:55:45.568Z,69833.06
2023-05-22T06:58:21.623Z,69849.94
2023-05-22T07:00:50.102Z,69889.19
2023-05-22T07:03:23.053Z,69900.63
2023-05-22T07:06:12.396Z,69881.91
2023-05-22T07:08:40.044Z,69891.31
2023-05-22T07:11:08.707Z,69860.00
2023-05-22T07:13:36.599Z,69877.16
2023-05-22T07:16:03.956Z,69913.97
2023-05-22T07:18:31.426Z,69925.44
2023-05-22T07:20:59.005Z,69922.59
2023-05-22T07:23:26.488Z,69934.72
2023-05-22T07:25:53.898Z,69902.94
2023-05-22T07:28:24.670Z,69852.38
2023-05-22T07:31:02.412Z,69823.53
2023-05-22T07:33:30.867Z,69849.69
2023-05-22T07:35:58.197Z,69858.25
2023-05-22T07:38:25.997Z,69868.16
2023-05-22T07:40:59.502Z,69919.56
2023-05-22T07:43:28.170Z,69951.47
2023-05-22T07:45:56.553Z,69928.72
2023-05-22T07:48:26.797Z,69935.16
2023-05-22T07:50:54.860Z,69914.41
2023-05-22T07:53:21.998Z,69940.16
2023-05-22T07:55:52.071Z,69959.22
2023-05-22T07:58:19.705Z,69966.34
2023-05-22T08:00:47.810Z,69930.69
2023-05-22T08:03:15.250Z,70006.06
2023-05-22T08:05:43.077Z,70058.38
2023-05-22T08:08:17.859Z,70001.75
2023-05-22T08:11:14.458Z,70065.66
2023-05-22T08:13:43.016Z,70109.81
2023-05-22T08:16:11.280Z,70127.72
2023-05-22T08:18:38.534Z,70136.34
2023-05-22T08:21:05.888Z,70147.88
2023-05-22T08:23:36.458Z,70149.03
2023-05-22T08:26:04.215Z,70175.19
2023-05-22T08:28:31.346Z,70148.81
2023-05-22T08:30:58.420Z,70041.44
2023-05-22T08:33:26.856Z,69962.22
2023-05-22T08:35:54.176Z,69974.13
2023-05-22T08:38:22.112Z,69979.53
2023-05-22T08:40:50.364Z,69944.91
2023-05-22T08:43:20.928Z,69935.59
2023-05-22T08:45:59.785Z,69969.78
2023-05-22T08:48:31.923Z,69984.88
2023-05-22T08:51:05.915Z,69987.16
2023-05-22T08:53:35.874Z,69975.53
2023-05-22T08:56:06.056Z,70037.56
2023-05-22T08:58:38.143Z,70062.97
2023-05-22T09:01:07.143Z,70110.38
2023-05-22T09:03:36.102Z,70144.81
2023-05-22T09:06:03.706Z,70151.69
2023-05-22T09:08:31.016Z,70158.00
2023-05-22T09:10:58.455Z,70159.56
2023-05-22T09:13:29.351Z,70164.31
2023-05-22T09:16:11.033Z,70153.97
2023-05-22T09:18:39.297Z,70177.63
2023-05-22T09:24:43.480Z,70105.38
2023-05-22T09:27:11.980Z,70150.53
2023-05-22T09:29:49.800Z,70161.28
2023-05-22T09:32:18.703Z,70143.09
2023-05-22T09:34:47.068Z,70122.41
2023-05-22T09:37:15.161Z,70127.59
2023-05-22T09:42:35.836Z,70172.31
2023-05-22T09:45:07.248Z,70128.75
2023-05-22T09:47:38.196Z,70037.72
2023-05-22T09:50:11.623Z,69973.94
2023-05-22T09:52:41.097Z,69943.19
2023-05-22T09:55:12.295Z,69893.03
2023-05-22T09:57:54.042Z,69873.16
2023-05-22T10:00:25.484Z,69847.97
2023-05-22T10:03:08.367Z,69846.09
2023-05-22T10:05:39.088Z,69854.44
2023-05-22T10:08:37.474Z,69833.66
2023-05-22T10:11:09.236Z,69806.19
2023-05-22T10:13:37.969Z,69773.13
2023-05-22T10:16:07.851Z,69792.59
2023-05-22T10:18:38.510Z,69795.28
2023-05-22T10:21:07.158Z,69790.13
2023-05-22T10:23:35.166Z,69774.28
2023-05-22T10:26:06.663Z,69781.56
2023-05-22T10:28:54.233Z,69809.59
2023-05-22T10:31:45.997Z,69825.47
2023-05-22T10:34:46.982Z,69914.81
2023-05-22T10:37:41.977Z,69989.59
2023-05-22T10:40:18.288Z,70035.50
2023-05-22T10:42:48.670Z,70090.88
2023-05-22T10:45:27.912Z,70092.84
2023-05-22T10:48:12.475Z,70113.50
2023-05-22T10:50:53.924Z,70131.75
2023-05-22T10:53:26.250Z,70142.22
2023-05-22T10:55:57.735Z,70146.53
2023-05-22T10:58:31.842Z,70133.31
2023-05-22T11:01:16.820Z,70163.56
2023-05-22T11:04:11.899Z,70157.41
2023-05-22T11:07:06.802Z,70144.06
2023-05-22T11:09:41.542Z,70119.78
2023-05-22T11:12:31.016Z,70104.31
2023-05-22T11:15:12.881Z,70104.66
2023-05-22T11:17:53.613Z,70071.41
2023-05-22T11:20:30.748Z,70025.38
2023-05-22T11:23:08.940Z,70000.91
2023-05-22T11:25:41.242Z,69987.00
2023-05-22T11:28:10.677Z,69984.44
2023-05-22T11:30:47.918Z,69990.19
2023-05-22T11:33:18.886Z,69984.31
2023-05-22T11:35:51.588Z,69994.59
2023-05-22T11:38:21.744Z,70002.47
2023-05-22T11:40:54.856Z,70027.41
2023-05-22T11:43:36.048Z,70032.56
2023-05-22T11:46:22.622Z,70043.31
2023-05-22T11:48:54.154Z,70059.91
2023-05-22T11:51:24.362Z,70074.13
2023-05-22T11:53:52.168Z,70062.81
2023-05-22T11:56:26.334Z,70066.25
2023-05-22T11:58:56.245Z,70063.38
2023-05-22T12:01:25.734Z,70047.00
2023-05-22T12:03:56.178Z,70067.97
2023-05-22T12:06:27.516Z,70033.56
2023-05-22T12:08:57.988Z,70046.75
2023-05-22T12:11:28.676Z,70060.66
2023-05-22T12:14:01.873Z,70051.91
2023-05-22T12:16:38.122Z,70057.06
2023-05-22T12:19:12.485Z,70054.03
2023-05-22T12:21:50.625Z,70044.72
2023-05-22T12:24:23.294Z,70072.69
2023-05-22T12:26:52.484Z,70108.09
2023-05-22T12:29:24.707Z,70129.44
2023-05-22T12:31:59.124Z,70096.28
2023-05-22T12:34:26.696Z,70139.06
2023-05-22T12:36:59.759Z,70120.28
2023-05-22T12:39:31.075Z,70107.66
2023-05-22T12:41:58.319Z,70087.44
2023-05-22T12:44:27.804Z,70059.63
2023-05-22T12:46:55.038Z,70081.16
2023-05-22T12:49:25.979Z,70080.31
2023-05-22T12:51:54.044Z,70076.22
2023-05-22T12:54:22.799Z,70101.38
2023-05-22T12:56:52.793Z,70113.25
2023-05-22T12:59:22.248Z,70127.84
2023-05-22T13:01:56.948Z,70149.38
2023-05-22T13:04:24.690Z,70156.28
2023-05-22T13:06:51.840Z,70170.75
2023-05-22T13:09:20.150Z,70139.28
2023-05-22T13:11:50.224Z,70180.34
2023-05-22T13:14:20.169Z,70191.47
2023-05-22T13:16:50.133Z,70158.16
2023-05-22T13:19:32.801Z,70171.75
2023-05-22T13:22:03.373Z,70153.56
2023-05-22T13:24:30.480Z,70143.66
2023-05-22T13:27:01.944Z,70132.88
2023-05-22T13:29:29.272Z,70164.72
2023-05-22T13:31:59.218Z,70153.97
2023-05-22T13:34:28.765Z,70161.44
2023-05-22T13:36:58.566Z,70159.88
2023-05-22T13:39:29.243Z,70161.59
2023-05-22T13:41:57.202Z,70138.88
2023-05-22T13:44:28.426Z,70102.63
2023-05-22T13:49:47.241Z,70103.94
2023-05-22T13:52:17.550Z,70106.38
2023-05-22T13:54:45.027Z,70106.94
2023-05-22T13:57:23.174Z,70115.13
2023-05-22T13:59:50.430Z,70101.78
2023-05-22T14:02:22.617Z,70098.91
2023-05-22T14:04:54.003Z,70116.13
2023-05-22T14:07:25.255Z,70115.22
2023-05-22T14:10:05.448Z,70128.16
2023-05-22T14:12:38.489Z,70103.34
2023-05-22T14:15:18.911Z,70104.66
2023-05-22T14:17:52.222Z,70114.56
2023-05-22T14:20:41.816Z,70083.59
2023-05-22T14:23:09.214Z,70080.16
2023-05-22T14:25:36.367Z,70063.81
2023-05-22T14:28:03.640Z,70053.06
2023-05-22T14:30:37.126Z,70031.84
2023-05-22T14:33:04.678Z,70021.53
2023-05-22T14:35:41.183Z,70020.56
2023-05-22T14:38:11.075Z,70042.75
2023-05-22T14:40:38.224Z,70027.97
2023-05-22T14:43:08.978Z,70018.09
2023-05-22T14:45:36.327Z,70034.72
2023-05-22T14:48:10.178Z,70036.59
2023-05-22T14:50:48.303Z,70032.84
2023-05-22T14:53:16.102Z,70049.88
2023-05-22T14:55:43.308Z,70042.00
2023-05-22T14:58:16.142Z,70008.34
2023-05-22T15:00:46.287Z,69997.06
2023-05-22T15:03:13.924Z,69976.09
2023-05-22T15:05:47.679Z,69974.97
2023-05-22T15:08:16.915Z,69958.34
2023-05-22T15:10:44.982Z,69939.75
2023-05-22T15:13:18.022Z,69931.41
2023-05-22T15:15:51.365Z,69917.09
2023-05-22T15:18:22.100Z,69922.97
2023-05-22T15:20:51.484Z,69897.63
2023-05-22T15:23:18.755Z,69902.94
2023-05-22T15:25:49.151Z,69905.06
2023-05-22T15:28:23.768Z,69883.72
2023-05-22T15:30:53.738Z,69865.56
2023-05-22T15:33:25.151Z,69855.41
2023-05-22T15:35:52.437Z,69857.84
2023-05-22T15:38:25.009Z,69851.22
2023-05-22T15:40:52.262Z,69834.38
2023-05-22T15:43:20.034Z,69830.78
2023-05-22T15:45:54.058Z,69803.31
2023-05-22T15:48:21.607Z,69786.13
2023-05-22T15:50:50.476Z,69778.53
2023-05-22T15:53:17.699Z,69779.94
2023-05-22T15:55:44.875Z,69766.13
2023-05-22T15:58:14.720Z,69761.53
2023-05-22T16:00:44.399Z,69755.25
2023-05-22T16:03:11.782Z,69745.53
2023-05-22T16:05:40.270Z,69752.22
2023-05-22T16:08:11.314Z,69744.03
2023-05-22T16:10:41.618Z,69741.75
2023-05-22T16:13:11.491Z,69722.63
2023-05-22T16:15:40.567Z,69722.63
2023-05-22T16:18:09.177Z,69738.06
2023-05-22T16:20:36.821Z,69746.66
2023-05-22T16:23:06.457Z,69755.66
2023-05-22T16:25:36.695Z,69763.81
2023-05-22T16:28:07.169Z,69763.25
2023-05-22T16:30:37.306Z,69764.25
2023-05-22T16:33:04.710Z,69765.97
2023-05-22T16:35:32.830Z,69745.91
2023-05-22T16:38:02.390Z,69724.50
2023-05-22T16:40:29.863Z,69718.06
2023-05-22T16:42:57.200Z,69701.47
2023-05-22T16:48:14.148Z,69663.72
2023-05-22T16:50:42.576Z,69652.09
2023-05-22T16:53:13.737Z,69648.25
2023-05-22T16:55:45.383Z,69636.09
2023-05-22T16:58:14.807Z,69607.25
2023-05-22T17:00:48.371Z,69604.09
2023-05-22T17:03:18.660Z,69601.81
2023-05-22T17:05:51.170Z,69595.50
2023-05-22T17:08:21.257Z,69582.53
2023-05-22T17:10:52.827Z,69572.06
2023-05-22T17:13:23.802Z,69556.44
2023-05-22T17:15:53.914Z,69544.78
2023-05-22T17:18:22.299Z,69513.59
2023-05-22T17:20:51.214Z,69513.03
2023-05-22T17:23:21.309Z,69507.47
2023-05-22T17:25:51.042Z,69499.91
2023-05-22T17:28:21.427Z,69487.66
2023-05-22T17:30:56.034Z,69498.75
2023-05-22T17:33:25.865Z,69496.63
2023-05-22T17:35:56.062Z,69483.50
2023-05-22T17:38:23.529Z,69479.31
2023-05-22T17:40:52.155Z,69490.59
2023-05-22T17:43:19.880Z,69487.91
2023-05-22T17:45:50.207Z,69479.09
2023-05-22T17:48:23.497Z,69481.78
2023-05-22T17:50:52.083Z,69497.78
2023-05-22T17:53:20.843Z,69480.25
2023-05-22T17:55:49.898Z,69477.03
2023-05-22T17:58:17.256Z,69459.09
2023-05-22T18:00:45.748Z,69457.59
2023-05-22T18:03:13.405Z,69447.66
2023-05-22T18:05:40.658Z,69457.03
2023-05-22T18:08:07.815Z,69452.81
2023-05-22T18:10:35.129Z,69446.75
2023-05-22T18:13:02.712Z,69430.13
2023-05-22T18:15:35.079Z,69426.53
2023-05-22T18:18:05.792Z,69409.25
2023-05-22T18:20:33.492Z,69426.75
2023-05-22T18:23:03.856Z,69423.69
2023-05-22T18:25:31.013Z,69422.53
2023-05-22T18:27:58.396Z,69419.34
2023-05-22T18:30:25.598Z,69403.53
2023-05-22T18:32:52.768Z,69406.56
2023-05-22T18:35:19.958Z,69405.81
2023-05-22T18:37:50.168Z,69391.13
2023-05-22T18:40:17.320Z,69392.50
2023-05-22T18:42:44.494Z,69389.84
2023-05-22T18:45:12.158Z,69376.47
2023-05-22T18:47:40.251Z,69378.81
2023-05-22T18:50:13.471Z,69366.97
2023-05-22T18:52:43.063Z,69372.69
2023-05-22T18:55:10.490Z,69358.56
2023-05-22T18:57:37.884Z,69357.84
2023-05-22T19:00:12.553Z,69353.84
2023-05-22T19:02:42.738Z,69339.41
2023-05-22T19:05:12.761Z,69328.75
2023-05-22T19:07:39.871Z,69325.31
2023-05-22T19:10:08.292Z,69324.91
2023-05-22T19:12:36.572Z,69320.59
2023-05-22T19:15:13.782Z,69319.44
2023-05-22T19:17:46.062Z,69301.19
2023-05-22T19:20:16.357Z,69279.84
2023-05-22T19:22:46.431Z,69275.84
2023-05-22T19:25:17.187Z,69266.53
2023-05-22T19:27:51.166Z,69269.59
2023-05-22T19:30:25.014Z,69261.56
2023-05-22T19:32:58.522Z,69269.22
2023-05-22T19:35:28.680Z,69278.94
2023-05-22T19:38:01.617Z,69258.16
2023-05-22T19:40:35.359Z,69268.06
2023-05-22T19:43:03.072Z,69253.00
2023-05-22T19:45:35.652Z,69260.84
2023-05-22T19:48:03.379Z,69250.00
2023-05-22T19:50:31.045Z,69243.88
2023-05-22T19:53:01.635Z,69246.56
2023-05-22T19:55:28.952Z,69238.75
2023-05-22T19:57:57.081Z,69253.81
2023-05-22T20:00:28.475Z,69245.03
2023-05-22T20:02:56.312Z,69243.88
2023-05-22T20:05:27.036Z,69241.59
2023-05-22T20:07:58.559Z,69233.06
2023-05-22T20:10:26.148Z,69235.34
2023-05-22T20:12:57.462Z,69222.41
2023-05-22T20:15:25.085Z,69230.19
2023-05-22T20:17:55.858Z,69229.84
2023-05-22T20:20:29.824Z,69226.44
2023-05-22T20:22:58.612Z,69215.38
2023-05-22T20:25:36.837Z,69218.78
2023-05-22T20:28:04.848Z,69214.06
2023-05-22T20:30:33.155Z,69209.28
2023-05-22T20:33:01.347Z,69216.34
2023-05-22T20:35:32.370Z,69222.06
2023-05-22T20:38:07.014Z,69220.50
2023-05-22T20:40:36.304Z,69222.63
2023-05-22T20:43:06.834Z,69216.75
2023-05-22T20:45:37.488Z,69216.50
2023-05-22T20:48:04.798Z,69227.56
2023-05-22T20:50:39.799Z,69231.75
2023-05-22T20:53:07.119Z,69221.88
2023-05-22T20:55:34.460Z,69223.59
2023-05-22T20:58:04.931Z,69229.47
2023-05-22T21:00:32.194Z,69219.94
2023-05-22T21:03:02.436Z,69214.44
2023-05-22T21:05:29.897Z,69208.19
2023-05-22T21:08:06.970Z,69198.84
2023-05-22T21:10:37.388Z,69188.41
2023-05-22T21:13:07.858Z,69190.34
2023-05-22T21:15:35.440Z,69174.50
2023-05-22T21:18:02.866Z,69157.22
2023-05-22T21:20:30.264Z,69154.94
2023-05-22T21:22:57.332Z,69163.13
2023-05-22T21:25:27.502Z,69151.91
2023-05-22T21:27:55.290Z,69146.22
2023-05-22T21:30:22.486Z,69142.56
2023-05-22T21:32:52.566Z,69143.34
2023-05-22T21:35:24.781Z,69156.31
2023-05-22T21:37:52.818Z,69141.25
2023-05-22T21:40:30.444Z,69150.59
2023-05-22T21:43:02.414Z,69151.72
2023-05-22T21:45:38.889Z,69158.97
2023-05-22T21:48:06.294Z,69147.34
2023-05-22T21:50:33.640Z,69137.66
2023-05-22T21:53:00.986Z,69139.34
2023-05-22T21:55:28.162Z,69141.31
2023-05-22T21:57:56.376Z,69139.19
2023-05-22T22:00:23.687Z,69129.66
2023-05-22T22:02:51.029Z,69134.25
2023-05-22T22:05:18.900Z,69129.50
2023-05-22T22:07:46.099Z,69128.53
2023-05-22T22:10:13.262Z,69136.13
2023-05-22T22:12:40.478Z,69132.94
2023-05-22T22:15:08.642Z,69127.97
2023-05-22T22:17:36.196Z,69112.75
2023-05-22T22:20:04.085Z,69111.44
2023-05-22T22:22:31.266Z,69106.50
2023-05-22T22:25:01.596Z,69106.50
2023-05-22T22:27:29.778Z,69101.91
2023-05-22T22:30:02.851Z,69088.84
2023-05-22T22:32:32.144Z,69092.06
2023-05-22T22:34:59.296Z,69084.66
2023-05-22T22:37:26.432Z,69070.59
2023-05-22T22:39:53.556Z,69063.75
2023-05-22T22:42:21.866Z,69045.16
2023-05-22T22:44:48.969Z,69033.53
2023-05-22T22:47:16.091Z,69029.41
2023-05-22T22:49:43.221Z,69022.38
2023-05-22T22:52:12.523Z,69016.84
2023-05-22T22:54:40.212Z,69007.34
2023-05-22T22:57:08.695Z,69016.84
2023-05-22T22:59:43.844Z,69014.97
2023-05-22T23:02:15.129Z,69013.44
2023-05-22T23:04:42.460Z,69018.41
2023-05-22T23:07:09.953Z,69042.88
2023-05-22T23:09:40.326Z,69065.69
2023-05-22T23:12:11.644Z,69074.81
2023-05-22T23:14:39.170Z,69075.38
2023-05-22T23:17:12.176Z,69065.06
2023-05-22T23:19:45.921Z,69077.09
2023-05-22T23:22:21.077Z,69067.41
2023-05-22T23:25:15.532Z,69066.25
2023-05-22T23:27:43.308Z,69065.28
2023-05-22T23:30:28.564Z,69073.25
2023-05-22T23:33:03.476Z,69067.56
2023-05-22T23:35:43.978Z,69070.97
2023-05-22T23:38:11.845Z,69064.72
2023-05-22T23:40:39.317Z,69052.19
2023-05-22T23:43:15.441Z,69046.28
2023-05-22T23:45:45.734Z,69042.88
2023-05-22T23:48:13.947Z,69031.09
2023-05-22T23:50:41.815Z,69037.19
2023-05-22T23:53:14.363Z,69039.06
2023-05-22T23:55:46.667Z,69034.13
2023-05-22T23:58:18.768Z,69028.06
